createdAt,value
2018-05-31T00:00:14.719Z,66.78
2018-05-31T00:01:50.058Z,66.11
2018-05-31T00:03:28.880Z,65.60
2018-05-31T00:05:05.931Z,65.77
2018-05-31T00:06:41.256Z,65.85
2018-05-31T00:08:17.071Z,65.71
2018-05-31T00:09:52.394Z,65.08
2018-05-31T00:11:28.331Z,65.34
2018-05-31T00:13:03.807Z,65.90
2018-05-31T00:14:38.968Z,65.58
2018-05-31T00:16:14.059Z,65.12
2018-05-31T00:17:53.652Z,65.14
2018-05-31T00:19:28.746Z,65.27
2018-05-31T00:21:05.379Z,65.84
2018-05-31T00:22:40.555Z,65.67
2018-05-31T00:24:15.917Z,65.81
2018-05-31T00:25:51.906Z,65.54
2018-05-31T00:27:29.210Z,65.57
2018-05-31T00:29:04.270Z,65.29
2018-05-31T00:30:39.417Z,65.29
2018-05-31T00:33:55.280Z,66.31
2018-05-31T00:35:30.603Z,66.49
2018-05-31T00:37:05.706Z,66.46
2018-05-31T00:38:40.821Z,65.85
2018-05-31T00:40:15.931Z,65.84
2018-05-31T00:41:51.790Z,66.27
2018-05-31T00:43:26.921Z,66.17
2018-05-31T00:45:02.795Z,65.87
2018-05-31T00:46:38.098Z,65.94
2018-05-31T00:48:13.995Z,65.75
2018-05-31T00:49:49.945Z,66.07
2018-05-31T00:51:25.419Z,66.54
2018-05-31T00:53:00.521Z,67.74
2018-05-31T00:54:35.638Z,68.33
2018-05-31T00:56:17.735Z,67.90
2018-05-31T00:57:53.079Z,67.26
2018-05-31T00:59:29.185Z,66.66
2018-05-31T01:01:04.605Z,66.59
2018-05-31T01:02:40.895Z,66.40
2018-05-31T01:04:16.027Z,66.31
2018-05-31T01:05:51.172Z,66.21
2018-05-31T01:07:26.290Z,65.49
2018-05-31T01:09:01.399Z,65.38
2018-05-31T01:10:36.740Z,65.60
2018-05-31T01:12:14.632Z,65.70
2018-05-31T01:13:49.769Z,66.42
2018-05-31T01:15:24.931Z,66.68
2018-05-31T01:17:00.555Z,66.98
2018-05-31T01:18:35.661Z,66.66
2018-05-31T01:20:10.743Z,67.81
2018-05-31T01:21:45.867Z,68.18
2018-05-31T01:23:20.944Z,70.12
2018-05-31T01:24:56.069Z,70.39
2018-05-31T01:26:31.186Z,70.70
2018-05-31T01:28:06.258Z,70.67
2018-05-31T01:29:41.358Z,70.72
2018-05-31T01:31:16.494Z,70.51
2018-05-31T01:32:51.619Z,70.56
2018-05-31T01:34:26.720Z,70.56
2018-05-31T01:36:01.845Z,70.75
2018-05-31T01:37:36.940Z,70.78
2018-05-31T01:39:19.792Z,71.04
2018-05-31T01:41:04.855Z,70.81
2018-05-31T01:42:39.962Z,70.29
2018-05-31T01:44:15.147Z,69.98
2018-05-31T01:45:50.269Z,70.23
2018-05-31T01:47:25.398Z,70.18
2018-05-31T01:49:00.491Z,69.89
2018-05-31T01:50:35.644Z,69.36
2018-05-31T01:52:11.298Z,69.31
2018-05-31T01:53:47.216Z,69.86
2018-05-31T01:55:23.315Z,70.02
2018-05-31T01:57:01.315Z,70.46
2018-05-31T02:00:16.580Z,70.50
2018-05-31T02:01:53.426Z,70.25
2018-05-31T02:03:28.520Z,70.06
2018-05-31T02:05:10.459Z,69.93
2018-05-31T02:06:46.547Z,69.85
2018-05-31T02:08:22.382Z,69.85
2018-05-31T02:09:57.956Z,69.44
2018-05-31T02:11:33.392Z,69.35
2018-05-31T02:13:10.663Z,69.61
2018-05-31T02:14:46.291Z,70.03
2018-05-31T02:16:32.513Z,70.36
2018-05-31T02:18:08.129Z,70.08
2018-05-31T02:19:45.967Z,70.10
2018-05-31T02:21:21.610Z,69.68
2018-05-31T02:22:56.763Z,69.61
2018-05-31T02:24:32.585Z,69.44
2018-05-31T02:26:08.691Z,69.29
2018-05-31T02:27:45.936Z,68.83
2018-05-31T02:29:22.696Z,68.54
2018-05-31T02:30:58.010Z,68.72
2018-05-31T02:32:36.776Z,68.74
2018-05-31T02:37:49.099Z,70.12
2018-05-31T02:42:54.741Z,69.75
2018-05-31T02:44:34.731Z,69.85
2018-05-31T02:46:11.737Z,69.96
2018-05-31T02:47:47.067Z,70.38
2018-05-31T02:49:22.334Z,70.50
2018-05-31T02:50:58.184Z,70.50
2018-05-31T02:52:34.021Z,70.16
2018-05-31T02:54:09.873Z,69.68
2018-05-31T02:55:45.766Z,69.33
2018-05-31T02:57:20.894Z,69.29
2018-05-31T02:58:55.996Z,69.65
2018-05-31T03:00:31.115Z,69.53
2018-05-31T03:02:07.111Z,69.41
2018-05-31T03:03:43.207Z,69.62
2018-05-31T03:05:18.592Z,69.84
2018-05-31T03:06:53.722Z,69.82
2018-05-31T03:08:28.810Z,69.28
2018-05-31T03:10:03.894Z,68.99
2018-05-31T03:11:39.001Z,69.19
2018-05-31T03:13:14.130Z,69.00
2018-05-31T03:14:49.992Z,69.34
2018-05-31T03:16:25.587Z,69.53
2018-05-31T03:18:00.762Z,69.34
2018-05-31T03:19:36.853Z,69.02
2018-05-31T03:21:11.943Z,68.53
2018-05-31T03:22:47.066Z,68.06
2018-05-31T03:24:22.169Z,68.24
2018-05-31T03:25:57.278Z,68.22
2018-05-31T03:27:32.392Z,68.13
2018-05-31T03:29:08.253Z,68.30
2018-05-31T03:30:44.112Z,68.51
2018-05-31T03:32:19.243Z,68.51
2018-05-31T03:33:55.177Z,68.79
2018-05-31T03:35:30.670Z,68.84
2018-05-31T03:37:06.126Z,68.69
2018-05-31T03:38:42.344Z,68.49
2018-05-31T03:40:17.683Z,68.08
2018-05-31T03:41:53.758Z,67.48
2018-05-31T03:43:28.918Z,66.99
2018-05-31T03:45:04.469Z,67.31
2018-05-31T03:46:39.788Z,66.96
2018-05-31T03:48:15.368Z,66.58
2018-05-31T03:49:50.659Z,66.25
2018-05-31T03:51:26.096Z,66.29
2018-05-31T03:53:02.216Z,66.37
2018-05-31T03:54:43.288Z,66.24
2018-05-31T03:56:26.310Z,66.37
2018-05-31T04:04:59.001Z,64.85
2018-05-31T04:06:34.076Z,64.93
2018-05-31T04:08:09.192Z,64.86
2018-05-31T04:09:44.299Z,64.29
2018-05-31T04:11:27.472Z,63.96
2018-05-31T04:13:03.417Z,62.15
2018-05-31T04:14:38.516Z,60.35
2018-05-31T04:16:13.662Z,59.07
2018-05-31T04:17:49.738Z,59.50
2018-05-31T04:19:24.942Z,60.69
2018-05-31T04:21:00.081Z,60.86
2018-05-31T04:22:35.173Z,61.35
2018-05-31T04:24:10.273Z,61.18
2018-05-31T04:25:45.443Z,60.43
2018-05-31T04:27:21.654Z,58.83
2018-05-31T04:28:57.512Z,57.45
2018-05-31T04:30:33.002Z,56.29
2018-05-31T04:32:08.152Z,55.45
2018-05-31T04:33:43.324Z,55.53
2018-05-31T04:35:19.560Z,55.40
2018-05-31T04:36:54.709Z,55.67
2018-05-31T04:38:30.391Z,55.35
2018-05-31T04:40:06.240Z,55.74
2018-05-31T04:41:41.346Z,56.77
2018-05-31T04:43:17.222Z,58.07
2018-05-31T04:45:09.931Z,58.81
2018-05-31T04:46:53.094Z,59.76
2018-05-31T04:48:29.099Z,61.62
2018-05-31T04:50:07.034Z,62.38
2018-05-31T04:51:43.141Z,62.51
2018-05-31T04:53:18.256Z,62.55
2018-05-31T04:54:54.098Z,62.86
2018-05-31T04:56:29.220Z,63.10
2018-05-31T04:58:04.370Z,63.08
2018-05-31T04:59:39.558Z,62.68
2018-05-31T05:01:14.903Z,62.16
2018-05-31T05:02:50.843Z,61.97
2018-05-31T05:04:26.013Z,61.59
2018-05-31T05:06:01.170Z,61.89
2018-05-31T05:07:36.350Z,61.14
2018-05-31T05:09:11.465Z,60.60
2018-05-31T05:10:47.315Z,60.26
2018-05-31T05:12:24.461Z,60.69
2018-05-31T05:13:59.571Z,61.79
2018-05-31T05:15:36.870Z,61.37
2018-05-31T05:17:11.976Z,61.29
2018-05-31T05:18:47.169Z,61.48
2018-05-31T05:20:24.238Z,61.70
2018-05-31T05:21:59.327Z,61.48
2018-05-31T05:23:34.527Z,61.20
2018-05-31T05:27:11.208Z,61.15
2018-05-31T05:28:46.315Z,60.64
2018-05-31T05:30:22.915Z,60.99
2018-05-31T05:31:58.045Z,61.08
2018-05-31T05:33:33.159Z,61.13
2018-05-31T05:35:08.234Z,60.89
2018-05-31T05:36:43.352Z,60.29
2018-05-31T05:38:18.452Z,60.37
2018-05-31T05:39:53.536Z,60.28
2018-05-31T05:41:28.649Z,60.38
2018-05-31T05:43:04.709Z,60.26
2018-05-31T05:44:39.807Z,60.00
2018-05-31T05:46:14.887Z,59.77
2018-05-31T05:47:49.986Z,59.98
2018-05-31T05:49:25.144Z,60.07
2018-05-31T05:51:01.061Z,60.42
2018-05-31T05:52:36.156Z,60.45
2018-05-31T05:54:11.274Z,60.22
2018-05-31T05:55:46.399Z,60.08
2018-05-31T05:57:24.252Z,60.03
2018-05-31T05:58:59.325Z,60.16
2018-05-31T06:00:34.521Z,60.17
2018-05-31T06:02:09.642Z,60.02
2018-05-31T06:03:44.736Z,60.13
2018-05-31T06:05:19.832Z,59.81
2018-05-31T06:06:55.003Z,60.00
2018-05-31T06:08:30.091Z,59.67
2018-05-31T06:10:05.486Z,59.68
2018-05-31T06:11:40.554Z,59.26
2018-05-31T06:13:16.457Z,59.20
2018-05-31T06:14:52.017Z,58.60
2018-05-31T06:16:27.157Z,58.70
2018-05-31T06:18:03.200Z,58.95
2018-05-31T06:19:39.100Z,58.73
2018-05-31T06:21:14.312Z,59.07
2018-05-31T06:22:50.168Z,58.46
2018-05-31T06:24:25.294Z,58.43
2018-05-31T06:26:02.964Z,57.83
2018-05-31T06:27:38.102Z,57.54
2018-05-31T06:29:13.957Z,57.31
2018-05-31T06:30:49.858Z,56.99
2018-05-31T06:32:24.946Z,57.26
2018-05-31T06:34:00.045Z,57.15
2018-05-31T06:35:37.714Z,57.17
2018-05-31T06:37:12.876Z,56.58
2018-05-31T06:38:47.943Z,55.85
2018-05-31T06:40:23.021Z,55.93
2018-05-31T06:41:58.101Z,55.72
2018-05-31T06:43:33.214Z,55.55
2018-05-31T06:45:08.294Z,55.07
2018-05-31T06:46:43.440Z,56.11
2018-05-31T06:48:18.745Z,56.18
2018-05-31T06:49:53.827Z,55.96
2018-05-31T06:51:29.681Z,55.80
2018-05-31T06:53:04.835Z,54.98
2018-05-31T06:54:39.914Z,53.73
2018-05-31T06:56:15.007Z,53.19
2018-05-31T06:57:50.093Z,52.44
2018-05-31T06:59:25.202Z,52.66
2018-05-31T07:01:00.308Z,52.54
2018-05-31T07:02:35.391Z,52.35
2018-05-31T07:04:10.521Z,51.93
2018-05-31T07:05:45.641Z,51.29
2018-05-31T07:07:21.095Z,51.54
2018-05-31T07:08:56.165Z,51.62
2018-05-31T07:10:31.275Z,51.26
2018-05-31T07:12:06.355Z,50.49
2018-05-31T07:13:42.267Z,50.54
2018-05-31T07:15:17.361Z,50.01
2018-05-31T07:19:05.521Z,49.40
2018-05-31T07:20:41.851Z,49.26
2018-05-31T07:22:18.632Z,49.14
2018-05-31T07:23:54.530Z,49.05
2018-05-31T07:25:29.775Z,48.95
2018-05-31T07:27:15.373Z,49.18
2018-05-31T07:28:54.522Z,49.00
2018-05-31T07:30:29.889Z,49.16
2018-05-31T07:32:05.095Z,49.31
2018-05-31T07:33:40.527Z,48.65
2018-05-31T07:35:27.833Z,48.72
2018-05-31T07:37:02.973Z,48.55
2018-05-31T07:38:38.156Z,48.35
2018-05-31T07:40:14.966Z,48.33
2018-05-31T07:41:55.582Z,48.51
2018-05-31T07:43:30.695Z,48.62
2018-05-31T07:45:06.780Z,49.45
2018-05-31T07:46:43.831Z,49.86
2018-05-31T07:48:19.732Z,49.67
2018-05-31T07:50:00.885Z,49.52
2018-05-31T07:51:36.083Z,49.50
2018-05-31T07:53:13.659Z,49.16
2018-05-31T07:54:48.855Z,49.15
2018-05-31T07:56:24.012Z,48.73
2018-05-31T07:57:59.232Z,47.95
2018-05-31T07:59:34.342Z,47.09
2018-05-31T08:01:09.522Z,47.54
2018-05-31T08:02:44.714Z,47.95
2018-05-31T08:04:20.629Z,49.65
2018-05-31T08:06:03.120Z,48.63
2018-05-31T08:07:38.204Z,48.60
2018-05-31T08:09:13.323Z,49.03
2018-05-31T08:10:48.566Z,48.58
2018-05-31T08:12:24.610Z,49.10
2018-05-31T08:13:59.709Z,48.92
2018-05-31T08:15:34.825Z,48.53
2018-05-31T08:17:09.978Z,48.55
2018-05-31T08:18:46.719Z,49.13
2018-05-31T08:20:21.788Z,48.42
2018-05-31T08:21:56.963Z,48.00
2018-05-31T08:23:32.053Z,48.14
2018-05-31T08:25:07.293Z,48.30
2018-05-31T08:26:43.582Z,47.86
2018-05-31T08:28:19.418Z,47.57
2018-05-31T08:29:55.446Z,46.95
2018-05-31T08:31:31.459Z,47.19
2018-05-31T08:33:06.566Z,46.99
2018-05-31T08:34:41.681Z,47.65
2018-05-31T08:36:16.788Z,47.38
2018-05-31T08:37:52.759Z,46.53
2018-05-31T08:39:28.704Z,46.68
2018-05-31T08:41:03.871Z,46.80
2018-05-31T08:42:39.046Z,46.66
2018-05-31T08:44:14.927Z,46.15
2018-05-31T08:45:50.081Z,45.70
2018-05-31T08:47:25.969Z,45.92
2018-05-31T08:49:01.059Z,45.73
2018-05-31T08:53:05.221Z,45.79
2018-05-31T08:54:46.781Z,45.71
2018-05-31T08:56:27.353Z,45.49
2018-05-31T08:58:01.798Z,45.83
2018-05-31T08:59:36.927Z,45.37
2018-05-31T09:01:12.026Z,44.89
2018-05-31T09:02:47.190Z,45.41
2018-05-31T09:04:23.128Z,44.31
2018-05-31T09:05:58.217Z,44.34
2018-05-31T09:07:33.320Z,44.73
2018-05-31T09:09:09.269Z,44.38
2018-05-31T09:10:44.338Z,44.04
2018-05-31T09:12:19.470Z,45.00
2018-05-31T09:13:54.672Z,45.28
2018-05-31T09:15:31.389Z,44.70
2018-05-31T09:17:06.556Z,44.98
2018-05-31T09:18:41.695Z,45.08
2018-05-31T09:20:16.834Z,44.63
2018-05-31T09:21:51.955Z,44.26
2018-05-31T09:28:12.917Z,42.10
2018-05-31T09:29:48.104Z,42.21
2018-05-31T09:31:23.349Z,42.35
2018-05-31T09:32:58.483Z,41.86
2018-05-31T09:34:36.890Z,41.56
2018-05-31T09:40:20.330Z,42.02
2018-05-31T09:42:15.334Z,41.06
2018-05-31T09:44:02.042Z,41.02
2018-05-31T09:45:37.212Z,41.34
2018-05-31T09:47:13.107Z,42.09
2018-05-31T09:48:50.885Z,41.45
2018-05-31T09:50:26.247Z,42.12
2018-05-31T09:52:03.029Z,41.60
2018-05-31T09:53:38.159Z,42.27
2018-05-31T09:55:14.649Z,41.84
2018-05-31T09:58:34.891Z,42.01
2018-05-31T10:00:13.455Z,41.34
2018-05-31T10:01:48.765Z,41.86
2018-05-31T10:03:24.876Z,41.32
2018-05-31T10:05:00.213Z,40.96
2018-05-31T10:06:35.315Z,41.87
2018-05-31T10:08:10.707Z,41.99
2018-05-31T10:09:46.615Z,41.34
2018-05-31T10:11:21.947Z,41.50
2018-05-31T10:12:57.072Z,41.93
2018-05-31T10:14:32.523Z,41.87
2018-05-31T10:16:07.651Z,40.73
2018-05-31T10:17:42.758Z,40.58
2018-05-31T10:19:17.898Z,40.91
2018-05-31T10:20:53.316Z,40.77
2018-05-31T10:22:28.430Z,41.52
2018-05-31T10:24:03.548Z,40.32
2018-05-31T10:25:38.677Z,40.08
2018-05-31T10:27:14.589Z,40.49
2018-05-31T10:28:49.652Z,39.80
2018-05-31T10:30:24.763Z,40.26
2018-05-31T10:31:59.852Z,40.82
2018-05-31T10:33:34.916Z,40.08
2018-05-31T10:35:10.359Z,39.67
2018-05-31T10:36:47.509Z,40.01
2018-05-31T10:38:22.599Z,40.08
2018-05-31T10:39:57.730Z,39.07
2018-05-31T10:41:32.856Z,38.99
2018-05-31T10:43:07.948Z,39.59
2018-05-31T10:44:43.032Z,40.32
2018-05-31T10:46:19.313Z,39.00
2018-05-31T10:47:54.383Z,38.24
2018-05-31T10:49:30.684Z,38.54
2018-05-31T10:51:05.788Z,38.48
2018-05-31T10:52:41.350Z,38.16
2018-05-31T10:54:18.235Z,37.37
2018-05-31T10:55:53.472Z,36.93
2018-05-31T10:57:29.437Z,37.54
2018-05-31T10:59:04.556Z,37.09
2018-05-31T11:00:39.968Z,36.83
2018-05-31T11:02:15.040Z,37.18
2018-05-31T11:03:50.195Z,36.75
2018-05-31T11:05:26.084Z,35.73
2018-05-31T11:07:01.166Z,36.91
2018-05-31T11:08:36.660Z,37.41
2018-05-31T11:10:14.327Z,36.27
2018-05-31T11:11:49.497Z,36.49
2018-05-31T11:13:24.633Z,37.28
2018-05-31T11:14:59.777Z,37.18
2018-05-31T11:16:36.727Z,36.42
2018-05-31T11:18:11.831Z,34.97
2018-05-31T11:21:33.257Z,36.88
2018-05-31T11:23:12.907Z,35.75
2018-05-31T11:27:10.629Z,34.55
2018-05-31T11:46:30.146Z,34.73
2018-05-31T11:48:09.511Z,39.62
2018-05-31T11:49:46.008Z,39.99
2018-05-31T12:00:20.108Z,40.79
2018-05-31T12:01:57.154Z,41.21
2018-05-31T12:03:32.602Z,40.63
2018-05-31T12:10:03.561Z,40.83
2018-05-31T12:13:21.039Z,41.31
2018-05-31T12:14:58.727Z,42.09
2018-05-31T12:16:34.826Z,41.73
2018-05-31T12:18:10.232Z,41.45
2018-05-31T12:19:45.630Z,41.87
2018-05-31T12:21:20.771Z,40.89
2018-05-31T12:22:57.436Z,40.82
2018-05-31T12:24:32.587Z,40.62
2018-05-31T12:26:09.711Z,40.50
2018-05-31T12:27:45.947Z,40.54
2018-05-31T12:29:21.995Z,41.67
2018-05-31T12:31:03.887Z,41.05
2018-05-31T12:34:18.317Z,40.39
2018-05-31T12:39:22.098Z,41.62
2018-05-31T12:40:58.922Z,40.87
2018-05-31T12:42:34.078Z,38.97
2018-05-31T12:44:09.583Z,38.79
2018-05-31T12:45:44.681Z,39.38
2018-05-31T12:47:24.883Z,39.61
2018-05-31T12:48:59.995Z,39.75
2018-05-31T12:50:35.070Z,39.18
2018-05-31T12:52:14.316Z,39.34
2018-05-31T12:53:54.207Z,40.08
2018-05-31T12:55:29.684Z,38.62
2018-05-31T12:57:07.528Z,39.21
2018-05-31T13:02:52.897Z,40.33
2018-05-31T13:04:27.994Z,42.44
2018-05-31T13:06:06.888Z,39.88
2018-05-31T13:07:41.851Z,39.16
2018-05-31T13:09:16.959Z,39.62
2018-05-31T13:10:52.194Z,39.81
2018-05-31T13:12:27.338Z,39.66
2018-05-31T13:14:02.775Z,39.60
2018-05-31T13:15:39.056Z,39.52
2018-05-31T13:17:14.143Z,39.54
2018-05-31T13:18:51.740Z,39.26
2018-05-31T13:20:27.785Z,39.51
2018-05-31T13:22:04.326Z,39.26
2018-05-31T13:23:42.956Z,39.58
2018-05-31T13:25:22.152Z,40.81
2018-05-31T13:26:57.633Z,38.28
2018-05-31T13:30:56.435Z,38.08
2018-05-31T13:32:32.116Z,38.13
2018-05-31T13:34:07.299Z,44.63
2018-05-31T13:37:24.330Z,47.59
2018-05-31T13:39:03.969Z,47.05
2018-05-31T13:44:22.172Z,48.90
2018-05-31T13:45:59.835Z,48.81
2018-05-31T13:47:35.196Z,48.53
2018-05-31T13:49:12.816Z,49.35
2018-05-31T13:54:59.461Z,47.95
2018-05-31T13:56:35.375Z,45.45
2018-05-31T13:58:11.304Z,47.74
2018-05-31T13:59:46.391Z,47.59
2018-05-31T14:01:21.746Z,47.97
2018-05-31T14:03:07.325Z,47.82
2018-05-31T14:04:42.412Z,48.03
2018-05-31T14:06:17.486Z,48.30
2018-05-31T14:07:54.121Z,48.51
2018-05-31T14:09:36.937Z,48.65
2018-05-31T14:13:37.978Z,48.10
2018-05-31T14:17:39.968Z,45.41
2018-05-31T14:21:25.138Z,48.62
2018-05-31T14:23:12.284Z,48.72
2018-05-31T14:28:56.514Z,46.63
2018-05-31T14:30:36.976Z,46.88
2018-05-31T14:32:18.188Z,45.59
2018-05-31T14:33:59.174Z,48.82
2018-05-31T14:35:42.248Z,48.70
2018-05-31T14:37:27.558Z,47.64
2018-05-31T14:41:05.664Z,46.14
2018-05-31T14:42:46.101Z,47.93
2018-05-31T14:44:26.711Z,45.87
2018-05-31T14:48:16.769Z,47.14
2018-05-31T14:49:55.333Z,47.37
2018-05-31T14:51:39.144Z,44.62
2018-05-31T14:53:16.286Z,43.60
2018-05-31T14:54:53.932Z,44.68
2018-05-31T14:56:31.627Z,47.17
2018-05-31T14:58:07.612Z,43.25
2018-05-31T14:59:42.806Z,43.54
2018-05-31T15:01:18.194Z,47.51
2018-05-31T15:02:53.411Z,45.58
2018-05-31T15:04:29.691Z,48.08
2018-05-31T15:06:05.698Z,47.99
2018-05-31T15:07:42.199Z,45.75
2018-05-31T15:09:17.543Z,46.43
2018-05-31T15:10:52.888Z,42.77
2018-05-31T15:12:28.816Z,41.00
2018-05-31T15:14:04.442Z,40.33
2018-05-31T15:15:40.270Z,38.43
2018-05-31T15:17:15.524Z,38.65
2018-05-31T15:18:52.698Z,39.65
2018-05-31T15:20:28.157Z,39.48
2018-05-31T15:22:07.189Z,39.94
2018-05-31T15:23:43.172Z,39.40
2018-05-31T15:25:19.087Z,39.10
2018-05-31T15:26:54.676Z,38.43
2018-05-31T15:28:29.898Z,37.97
2018-05-31T15:30:11.619Z,38.22
2018-05-31T15:31:47.069Z,38.70
2018-05-31T15:33:22.348Z,38.90
2018-05-31T15:34:59.266Z,38.59
2018-05-31T15:36:35.348Z,38.67
2018-05-31T15:38:11.463Z,37.88
2018-05-31T15:42:01.703Z,39.09
2018-05-31T15:43:53.759Z,43.57
2018-05-31T15:45:29.117Z,44.39
2018-05-31T15:49:42.394Z,48.21
2018-05-31T15:51:17.586Z,49.70
2018-05-31T15:52:53.460Z,49.73
2018-05-31T15:54:28.763Z,51.31
2018-05-31T15:56:06.793Z,49.40
2018-05-31T15:57:42.712Z,49.12
2018-05-31T15:59:17.996Z,45.59
2018-05-31T16:00:55.499Z,45.20
2018-05-31T16:02:31.398Z,47.48
2018-05-31T16:04:07.223Z,48.76
2018-05-31T16:05:42.539Z,49.35
2018-05-31T16:07:17.884Z,49.19
2018-05-31T16:08:53.254Z,49.49
2018-05-31T16:10:30.284Z,49.12
2018-05-31T16:12:10.820Z,49.50
2018-05-31T16:13:46.001Z,48.82
2018-05-31T16:15:23.408Z,47.53
2018-05-31T16:16:58.672Z,47.27
2018-05-31T16:18:34.999Z,47.37
2018-05-31T16:20:10.215Z,47.44
2018-05-31T16:21:52.878Z,47.11
2018-05-31T16:23:32.770Z,47.34
2018-05-31T16:25:13.410Z,48.16
2018-05-31T16:26:49.729Z,48.33
2018-05-31T16:28:25.401Z,48.53
2018-05-31T16:30:05.241Z,47.78
2018-05-31T16:33:52.804Z,50.18
2018-05-31T16:35:28.799Z,51.00
2018-05-31T16:37:03.929Z,50.82
2018-05-31T16:38:43.016Z,49.99
2018-05-31T16:40:18.945Z,49.33
2018-05-31T16:42:01.273Z,50.08
2018-05-31T16:43:36.375Z,49.66
2018-05-31T16:45:11.516Z,49.80
2018-05-31T16:46:46.651Z,51.25
2018-05-31T16:48:21.845Z,52.00
2018-05-31T16:49:57.051Z,52.89
2018-05-31T16:51:32.944Z,52.09
2018-05-31T16:53:08.274Z,51.82
2018-05-31T16:54:43.513Z,53.77
2018-05-31T16:56:18.658Z,54.06
2018-05-31T16:57:55.319Z,54.09
2018-05-31T16:59:30.504Z,54.43
2018-05-31T17:01:06.186Z,52.96
2018-05-31T17:02:41.344Z,51.65
2018-05-31T17:04:16.481Z,54.37
2018-05-31T17:05:51.585Z,54.29
2018-05-31T17:07:27.483Z,53.42
2018-05-31T17:09:02.656Z,53.04
2018-05-31T17:10:37.768Z,53.72
2018-05-31T17:12:12.984Z,54.93
2018-05-31T17:14:13.800Z,54.26
2018-05-31T17:15:48.923Z,53.71
2018-05-31T17:17:24.069Z,53.42
2018-05-31T17:18:59.192Z,52.82
2018-05-31T17:20:34.368Z,52.75
2018-05-31T17:22:10.256Z,53.56
2018-05-31T17:23:45.419Z,53.96
2018-05-31T17:25:32.156Z,54.66
2018-05-31T17:27:08.260Z,52.43
2018-05-31T17:28:43.454Z,52.85
2018-05-31T17:30:18.653Z,53.83
2018-05-31T17:31:53.831Z,54.21
2018-05-31T17:33:46.353Z,54.26
2018-05-31T17:35:48.668Z,53.63
2018-05-31T17:37:23.780Z,53.09
2018-05-31T17:38:59.709Z,53.10
2018-05-31T17:40:49.258Z,53.40
2018-05-31T17:42:24.373Z,53.86
2018-05-31T17:44:00.565Z,54.10
2018-05-31T17:45:35.691Z,54.22
2018-05-31T17:47:12.184Z,54.04
2018-05-31T17:48:48.300Z,54.17
2018-05-31T17:50:23.513Z,54.01
2018-05-31T17:51:58.715Z,53.83
2018-05-31T17:53:34.731Z,54.47
2018-05-31T17:55:11.966Z,54.54
2018-05-31T17:56:47.182Z,53.40
2018-05-31T17:58:22.791Z,53.50
2018-05-31T18:00:13.313Z,53.37
2018-05-31T18:01:48.943Z,53.73
2018-05-31T18:03:25.100Z,53.53
2018-05-31T18:05:01.408Z,53.19
2018-05-31T18:06:36.633Z,52.74
2018-05-31T18:08:12.125Z,52.09
2018-05-31T18:09:56.280Z,52.68
2018-05-31T18:11:36.172Z,53.33
2018-05-31T18:13:16.274Z,54.00
2018-05-31T18:14:51.462Z,53.73
2018-05-31T18:16:29.776Z,53.61
2018-05-31T18:18:04.957Z,54.10
2018-05-31T18:19:40.136Z,54.72
2018-05-31T18:21:21.010Z,55.39
2018-05-31T18:22:56.317Z,54.76
2018-05-31T18:24:33.560Z,54.89
2018-05-31T18:41:51.676Z,58.27
2018-05-31T18:43:33.480Z,58.15
2018-05-31T18:45:10.630Z,58.16
2018-05-31T18:46:49.241Z,58.35
2018-05-31T18:53:20.720Z,59.29
2018-05-31T18:57:13.542Z,59.18
2018-05-31T18:58:48.735Z,59.78
2018-05-31T19:00:23.880Z,59.83
2018-05-31T19:01:59.670Z,59.99
2018-05-31T19:03:34.863Z,59.52
2018-05-31T19:05:10.778Z,59.94
2018-05-31T19:06:47.748Z,59.96
2018-05-31T19:08:31.480Z,60.32
2018-05-31T19:10:06.772Z,60.90
2018-05-31T19:11:46.489Z,61.03
2018-05-31T19:13:27.940Z,60.88
2018-05-31T19:15:03.976Z,61.40
2018-05-31T19:16:40.969Z,61.47
2018-05-31T19:18:31.503Z,61.36
2018-05-31T19:20:06.700Z,61.35
2018-05-31T19:21:41.807Z,61.35
2018-05-31T19:23:17.013Z,61.46
2018-05-31T19:24:57.746Z,62.13
2018-05-31T19:26:33.624Z,62.23
2018-05-31T19:28:08.988Z,61.98
2018-05-31T19:29:44.101Z,61.93
2018-05-31T19:31:19.226Z,61.94
2018-05-31T19:32:54.581Z,61.44
2018-05-31T19:34:29.669Z,61.38
2018-05-31T19:36:10.287Z,61.67
2018-05-31T19:37:46.881Z,62.09
2018-05-31T19:39:22.006Z,62.21
2018-05-31T19:40:57.763Z,62.06
2018-05-31T19:42:39.064Z,62.29
2018-05-31T19:44:19.728Z,62.57
2018-05-31T19:45:54.798Z,62.38
2018-05-31T19:47:29.898Z,62.80
2018-05-31T19:49:06.000Z,62.98
2018-05-31T19:50:41.839Z,63.39
2018-05-31T19:52:23.225Z,63.46
2018-05-31T19:53:58.294Z,63.47
2018-05-31T19:55:33.411Z,63.34
2018-05-31T19:57:08.486Z,63.66
2018-05-31T19:58:49.007Z,63.29
2018-05-31T20:00:29.562Z,63.28
2018-05-31T20:02:10.093Z,63.37
2018-05-31T20:03:45.161Z,63.64
2018-05-31T20:05:20.283Z,63.84
2018-05-31T20:06:56.119Z,63.60
2018-05-31T20:08:31.223Z,63.48
2018-05-31T20:10:08.950Z,63.77
2018-05-31T20:11:44.036Z,63.68
2018-05-31T20:13:19.111Z,63.55
2018-05-31T20:14:58.932Z,63.88
2018-05-31T20:16:34.041Z,63.96
2018-05-31T20:18:09.927Z,64.06
2018-05-31T20:19:45.043Z,64.12
2018-05-31T20:21:20.126Z,64.01
2018-05-31T20:22:55.236Z,63.73
2018-05-31T20:24:30.357Z,63.51
2018-05-31T20:26:05.544Z,63.28
2018-05-31T20:27:41.374Z,63.11
2018-05-31T20:29:16.475Z,63.08
2018-05-31T20:30:51.609Z,63.02
2018-05-31T20:32:26.676Z,63.04
2018-05-31T20:34:02.960Z,63.21
2018-05-31T20:35:39.809Z,63.62
2018-05-31T20:37:19.469Z,63.74
2018-05-31T20:43:52.424Z,63.83
2018-05-31T20:45:30.978Z,64.22
2018-05-31T20:47:08.262Z,64.29
2018-05-31T20:48:43.439Z,64.43
2018-05-31T20:50:18.582Z,64.61
2018-05-31T20:51:54.060Z,64.93
2018-05-31T20:53:29.957Z,65.10
2018-05-31T20:55:08.801Z,65.51
2018-05-31T20:56:44.112Z,65.48
2018-05-31T20:58:19.670Z,65.54
2018-05-31T20:59:54.960Z,65.53
2018-05-31T21:01:30.020Z,65.37
2018-05-31T21:03:05.132Z,64.95
2018-05-31T21:04:40.232Z,64.99
2018-05-31T21:06:15.345Z,65.19
2018-05-31T21:07:50.694Z,65.49
2018-05-31T21:09:25.752Z,65.76
2018-05-31T21:11:00.858Z,65.23
2018-05-31T21:12:35.926Z,65.23
2018-05-31T21:14:11.046Z,65.18
2018-05-31T21:15:46.771Z,64.88
2018-05-31T21:17:21.855Z,64.79
2018-05-31T21:18:56.999Z,65.07
2018-05-31T21:20:32.695Z,65.22
2018-05-31T21:22:08.636Z,65.55
2018-05-31T21:23:48.391Z,65.20
2018-05-31T21:25:23.483Z,65.14
2018-05-31T21:26:58.567Z,65.63
2018-05-31T21:28:33.909Z,66.06
2018-05-31T21:30:09.004Z,66.29
2018-05-31T21:38:22.313Z,67.07
2018-05-31T21:39:57.681Z,66.99
2018-05-31T21:41:33.043Z,66.66
2018-05-31T21:43:08.426Z,66.83
2018-05-31T21:44:43.715Z,67.23
2018-05-31T21:46:18.901Z,67.59
2018-05-31T21:47:54.735Z,67.57
2018-05-31T21:49:30.378Z,67.47
2018-05-31T21:51:05.470Z,67.74
2018-05-31T21:52:41.354Z,68.06
2018-05-31T21:54:16.410Z,68.42
2018-05-31T21:55:51.525Z,68.83
2018-05-31T21:57:37.265Z,69.13
2018-05-31T21:59:13.142Z,69.15
2018-05-31T22:00:53.514Z,68.90
2018-05-31T22:02:28.576Z,68.36
2018-05-31T22:04:04.843Z,68.44
2018-05-31T22:05:40.617Z,68.60
2018-05-31T22:07:15.620Z,69.00
2018-05-31T22:08:51.532Z,69.07
2018-05-31T22:10:26.643Z,68.77
2018-05-31T22:12:01.795Z,68.66
2018-05-31T22:13:36.921Z,68.68
2018-05-31T22:15:11.994Z,68.44
2018-05-31T22:16:47.099Z,68.47
2018-05-31T22:18:22.170Z,68.59
2018-05-31T22:19:57.252Z,68.80
2018-05-31T22:21:32.378Z,68.84
2018-05-31T22:23:07.467Z,68.83
2018-05-31T22:24:42.539Z,68.84
2018-05-31T22:26:17.643Z,68.62
2018-05-31T22:27:52.716Z,68.76
2018-05-31T22:29:28.551Z,69.08
2018-05-31T22:31:03.634Z,69.19
2018-05-31T22:32:38.735Z,68.92
2018-05-31T22:34:14.584Z,68.93
2018-05-31T22:35:50.429Z,69.16
2018-05-31T22:37:25.508Z,69.38
2018-05-31T22:39:00.624Z,69.04
2018-05-31T22:40:35.737Z,69.01
2018-05-31T22:42:10.807Z,69.04
2018-05-31T22:43:45.939Z,68.98
2018-05-31T22:45:21.056Z,68.82
2018-05-31T22:46:56.178Z,68.98
2018-05-31T22:50:11.248Z,69.48
2018-05-31T22:51:46.336Z,69.33
2018-05-31T22:53:22.212Z,69.19
2018-05-31T22:55:03.780Z,69.43
2018-05-31T22:56:39.210Z,69.39
2018-05-31T22:58:14.288Z,69.21
2018-05-31T22:59:49.354Z,68.86
2018-05-31T23:01:24.422Z,68.64
2018-05-31T23:02:59.555Z,68.61
2018-05-31T23:04:34.636Z,68.56
2018-05-31T23:06:10.729Z,68.69
2018-05-31T23:07:45.850Z,68.85
2018-05-31T23:09:21.713Z,68.49
2018-05-31T23:10:56.835Z,68.54
2018-05-31T23:12:31.911Z,68.49